createdAt,value
2022-10-08T00:00:00.540Z,15.52
2022-10-08T00:02:29.733Z,15.86
2022-10-08T00:04:58.161Z,15.69
2022-10-08T00:07:26.838Z,15.51
2022-10-08T00:09:56.425Z,15.12
2022-10-08T00:12:24.707Z,14.94
2022-10-08T00:14:54.021Z,14.92
2022-10-08T00:17:22.286Z,15.28
2022-10-08T00:19:50.546Z,15.15
2022-10-08T00:22:18.942Z,15.28
2022-10-08T00:24:47.432Z,15.32
2022-10-08T00:27:17.372Z,15.12
2022-10-08T00:29:45.706Z,15.37
2022-10-08T00:32:13.996Z,15.44
2022-10-08T00:34:43.178Z,15.20
2022-10-08T00:37:11.626Z,15.37
2022-10-08T00:39:40.615Z,15.08
2022-10-08T00:42:10.982Z,14.93
2022-10-08T00:44:55.519Z,14.99
2022-10-08T00:47:41.080Z,14.96
2022-10-08T00:50:16.910Z,15.07
2022-10-08T00:52:49.872Z,15.29
2022-10-08T00:55:22.349Z,15.30
2022-10-08T00:57:52.068Z,15.05
2022-10-08T01:00:25.212Z,14.92
2022-10-08T01:02:54.844Z,15.22
2022-10-08T01:05:39.422Z,14.79
2022-10-08T01:08:16.439Z,14.73
2022-10-08T01:10:55.157Z,14.96
2022-10-08T01:13:37.307Z,15.23
2022-10-08T01:16:21.230Z,15.11
2022-10-08T01:18:59.052Z,14.88
2022-10-08T01:21:39.756Z,15.20
2022-10-08T01:24:22.657Z,15.28
2022-10-08T01:27:02.361Z,15.19
2022-10-08T01:29:40.061Z,15.25
2022-10-08T01:32:14.980Z,15.15
2022-10-08T01:34:48.043Z,14.94
2022-10-08T01:37:23.180Z,15.20
2022-10-08T01:39:54.076Z,15.11
2022-10-08T01:42:26.329Z,14.99
2022-10-08T01:45:02.532Z,15.29
2022-10-08T01:47:32.234Z,15.16
2022-10-08T01:50:06.446Z,15.31
2022-10-08T01:52:41.564Z,15.16
2022-10-08T01:55:15.154Z,15.14
2022-10-08T01:57:44.701Z,15.23
2022-10-08T02:00:16.559Z,14.80
2022-10-08T02:02:45.810Z,14.86
2022-10-08T02:05:14.268Z,14.94
2022-10-08T02:07:44.532Z,14.64
2022-10-08T02:10:15.824Z,14.61
2022-10-08T02:12:46.293Z,14.70
2022-10-08T02:15:21.306Z,14.49
2022-10-08T02:17:58.453Z,14.40
2022-10-08T02:20:36.746Z,14.45
2022-10-08T02:23:12.138Z,14.52
2022-10-08T02:25:47.528Z,14.55
2022-10-08T02:28:21.446Z,14.14
2022-10-08T02:30:56.931Z,14.58
2022-10-08T02:33:32.895Z,14.47
2022-10-08T02:36:03.628Z,14.49
2022-10-08T02:38:37.280Z,14.31
2022-10-08T02:41:08.858Z,14.45
2022-10-08T02:43:43.429Z,14.54
2022-10-08T02:46:17.333Z,14.51
2022-10-08T02:48:50.722Z,14.14
2022-10-08T02:51:21.002Z,14.60
2022-10-08T02:53:50.320Z,14.58
2022-10-08T02:56:27.553Z,14.47
2022-10-08T02:58:57.127Z,14.51
2022-10-08T03:01:37.842Z,14.15
2022-10-08T03:04:10.735Z,14.04
2022-10-08T03:06:40.058Z,14.23
2022-10-08T03:09:11.790Z,14.14
2022-10-08T03:11:40.944Z,14.08
2022-10-08T03:14:13.856Z,14.14
2022-10-08T03:16:47.016Z,13.73
2022-10-08T03:19:18.795Z,14.00
2022-10-08T03:21:50.578Z,13.93
2022-10-08T03:24:18.934Z,14.13
2022-10-08T03:26:47.322Z,13.89
2022-10-08T03:29:15.725Z,13.89
2022-10-08T03:31:45.707Z,13.52
2022-10-08T03:34:14.104Z,13.88
2022-10-08T03:36:42.457Z,13.83
2022-10-08T03:39:11.799Z,13.52
2022-10-08T03:41:40.278Z,13.72
2022-10-08T03:44:09.283Z,13.73
2022-10-08T03:46:37.573Z,13.43
2022-10-08T03:49:07.207Z,13.67
2022-10-08T03:51:35.472Z,13.61
2022-10-08T03:54:03.827Z,13.63
2022-10-08T03:56:32.220Z,13.27
2022-10-08T03:59:01.945Z,13.68
2022-10-08T04:01:30.936Z,13.77
2022-10-08T04:03:59.337Z,13.62
2022-10-08T04:06:29.155Z,13.68
2022-10-08T04:09:01.127Z,13.69
2022-10-08T04:11:30.492Z,13.68
2022-10-08T04:13:58.771Z,13.60
2022-10-08T04:16:27.060Z,13.22
2022-10-08T04:18:55.647Z,13.43
2022-10-08T04:21:24.008Z,13.51
2022-10-08T04:23:53.673Z,13.46
2022-10-08T04:26:21.996Z,13.61
2022-10-08T04:28:50.397Z,13.61
2022-10-08T04:31:21.823Z,13.66
2022-10-08T04:33:51.897Z,13.61
2022-10-08T04:36:22.819Z,13.41
2022-10-08T04:38:52.075Z,13.55
2022-10-08T04:41:24.215Z,13.50
2022-10-08T04:43:54.277Z,13.49
2022-10-08T04:46:23.783Z,13.43
2022-10-08T04:48:55.412Z,13.30
2022-10-08T04:51:26.014Z,13.34
2022-10-08T04:53:56.462Z,13.17
2022-10-08T04:56:28.392Z,13.37
2022-10-08T04:58:58.610Z,12.90
2022-10-08T05:01:28.988Z,13.32
2022-10-08T05:04:00.291Z,13.33
2022-10-08T05:06:32.423Z,13.41
2022-10-08T05:09:04.165Z,13.35
2022-10-08T05:11:34.876Z,13.17
2022-10-08T05:14:03.962Z,13.34
2022-10-08T05:16:32.291Z,12.93
2022-10-08T05:19:01.095Z,13.17
2022-10-08T05:21:31.805Z,13.21
2022-10-08T05:24:02.905Z,13.12
2022-10-08T05:26:57.083Z,12.98
2022-10-08T05:29:23.161Z,13.18
2022-10-08T05:31:51.387Z,13.19
2022-10-08T05:34:19.920Z,12.86
2022-10-08T05:36:48.323Z,13.04
2022-10-08T05:39:17.113Z,13.05
2022-10-08T05:41:46.946Z,12.74
2022-10-08T05:44:15.518Z,13.09
2022-10-08T05:46:44.195Z,13.09
2022-10-08T05:49:21.541Z,12.96
2022-10-08T05:51:50.925Z,12.97
2022-10-08T05:54:20.200Z,12.78
2022-10-08T05:56:49.885Z,13.06
2022-10-08T05:59:21.259Z,13.22
2022-10-08T06:01:50.047Z,13.19
2022-10-08T06:04:19.384Z,13.07
2022-10-08T06:06:48.246Z,12.95
2022-10-08T06:09:19.427Z,13.07
2022-10-08T06:11:50.491Z,12.97
2022-10-08T06:14:20.306Z,12.19
2022-10-08T06:16:48.601Z,13.08
2022-10-08T06:19:17.408Z,13.06
2022-10-08T06:21:45.775Z,12.88
2022-10-08T06:24:14.423Z,12.76
2022-10-08T06:26:44.463Z,12.78
2022-10-08T06:29:17.214Z,12.76
2022-10-08T06:31:46.340Z,12.73
2022-10-08T06:34:15.045Z,12.59
2022-10-08T06:36:43.373Z,12.71
2022-10-08T06:39:14.478Z,12.70
2022-10-08T06:41:43.339Z,12.63
2022-10-08T06:44:15.868Z,12.71
2022-10-08T06:46:44.516Z,12.71
2022-10-08T06:49:13.611Z,12.87
2022-10-08T06:51:41.920Z,12.93
2022-10-08T06:54:10.258Z,12.62
2022-10-08T06:56:39.575Z,12.60
2022-10-08T06:59:09.044Z,12.72
2022-10-08T07:01:38.918Z,12.94
2022-10-08T07:04:07.724Z,13.10
2022-10-08T07:06:36.378Z,13.29
2022-10-08T07:09:07.099Z,12.33
2022-10-08T07:11:35.917Z,13.16
2022-10-08T07:14:04.338Z,13.36
2022-10-08T07:16:32.768Z,13.38
2022-10-08T07:19:02.804Z,13.05
2022-10-08T07:21:31.796Z,13.30
2022-10-08T07:24:02.045Z,13.22
2022-10-08T07:26:34.408Z,13.15
2022-10-08T07:29:06.238Z,13.50
2022-10-08T07:31:36.866Z,13.02
2022-10-08T07:34:11.638Z,13.53
2022-10-08T07:36:41.188Z,13.29
2022-10-08T07:39:13.762Z,13.51
2022-10-08T07:41:42.557Z,13.45
2022-10-08T07:44:12.830Z,12.95
2022-10-08T07:46:46.591Z,13.27
2022-10-08T07:49:18.065Z,13.52
2022-10-08T07:51:47.151Z,13.53
2022-10-08T07:54:18.439Z,13.52
2022-10-08T07:56:47.026Z,13.70
2022-10-08T07:59:16.209Z,13.69
2022-10-08T08:01:46.626Z,13.73
2022-10-08T08:04:16.379Z,13.84
2022-10-08T08:06:48.607Z,13.90
2022-10-08T08:09:18.285Z,13.53
2022-10-08T08:11:47.443Z,13.83
2022-10-08T08:14:16.043Z,14.01
2022-10-08T08:16:44.518Z,14.04
2022-10-08T08:19:12.958Z,14.43
2022-10-08T08:21:42.633Z,14.31
2022-10-08T08:24:15.244Z,14.71
2022-10-08T08:26:45.204Z,14.79
2022-10-08T08:29:15.439Z,14.97
2022-10-08T08:31:46.076Z,14.81
2022-10-08T08:34:16.869Z,14.97
2022-10-08T08:36:49.555Z,15.06
2022-10-08T08:39:21.663Z,15.10
2022-10-08T08:42:14.710Z,14.85
2022-10-08T08:44:45.459Z,15.00
2022-10-08T08:47:19.973Z,14.79
2022-10-08T08:49:53.238Z,14.58
2022-10-08T08:52:27.813Z,14.83
2022-10-08T08:54:56.710Z,15.04
2022-10-08T08:57:37.836Z,15.15
2022-10-08T09:00:15.039Z,15.31
2022-10-08T09:02:53.031Z,15.31
2022-10-08T09:05:23.251Z,15.47
2022-10-08T09:08:00.346Z,15.39
2022-10-08T09:10:40.411Z,15.58
2022-10-08T09:13:15.522Z,15.62
2022-10-08T09:15:45.673Z,15.56
2022-10-08T09:18:16.362Z,15.33
2022-10-08T09:20:45.382Z,15.60
2022-10-08T09:23:18.877Z,15.56
2022-10-08T09:25:54.343Z,15.74
2022-10-08T09:28:46.534Z,16.09
2022-10-08T09:31:29.542Z,16.39
2022-10-08T09:34:03.022Z,16.30
2022-10-08T09:36:35.338Z,16.37
2022-10-08T09:39:14.324Z,16.04
2022-10-08T09:41:42.859Z,16.17
2022-10-08T09:44:21.075Z,16.10
2022-10-08T09:47:04.916Z,16.41
2022-10-08T09:49:35.948Z,16.67
2022-10-08T09:52:17.083Z,16.52
2022-10-08T09:54:51.269Z,16.56
2022-10-08T09:57:22.994Z,16.43
2022-10-08T09:59:56.033Z,16.29
2022-10-08T10:02:31.976Z,16.07
2022-10-08T10:05:02.064Z,16.67
2022-10-08T10:07:42.991Z,16.08
2022-10-08T10:10:22.102Z,17.46
2022-10-08T10:12:55.351Z,17.70
2022-10-08T10:15:33.562Z,17.93
2022-10-08T10:18:06.191Z,18.02
2022-10-08T10:20:39.578Z,17.83
2022-10-08T10:23:16.355Z,17.57
2022-10-08T10:25:50.984Z,17.43
2022-10-08T10:28:34.584Z,17.69
2022-10-08T10:31:09.166Z,17.24
2022-10-08T10:33:47.619Z,17.72
2022-10-08T10:36:19.293Z,17.51
2022-10-08T10:38:56.892Z,18.08
2022-10-08T10:41:34.055Z,18.26
2022-10-08T10:44:07.438Z,18.31
2022-10-08T10:46:41.980Z,18.10
2022-10-08T10:49:17.426Z,18.05
2022-10-08T10:52:00.368Z,18.15
2022-10-08T10:55:09.551Z,17.93
2022-10-08T10:58:23.766Z,18.26
2022-10-08T11:01:04.626Z,18.56
2022-10-08T11:03:43.870Z,18.70
2022-10-08T11:06:49.898Z,18.70
2022-10-08T11:09:29.462Z,18.30
2022-10-08T11:12:04.432Z,18.58
2022-10-08T11:14:54.815Z,18.55
2022-10-08T11:17:41.190Z,18.51
2022-10-08T11:20:39.800Z,18.37
2022-10-08T11:23:24.905Z,18.31
2022-10-08T11:26:20.818Z,17.70
2022-10-08T11:29:00.837Z,18.09
2022-10-08T11:31:41.130Z,17.26
2022-10-08T11:34:25.679Z,18.29
2022-10-08T11:37:12.899Z,18.75
2022-10-08T11:39:58.375Z,18.73
2022-10-08T11:42:40.666Z,18.74
2022-10-08T11:45:34.297Z,18.76
2022-10-08T11:48:32.893Z,19.07
2022-10-08T11:51:39.128Z,18.78
2022-10-08T11:54:19.412Z,19.16
2022-10-08T11:56:51.709Z,19.45
2022-10-08T11:59:36.551Z,19.68
2022-10-08T12:02:20.556Z,19.85
2022-10-08T12:04:52.762Z,19.29
2022-10-08T12:07:33.695Z,19.44
2022-10-08T12:10:32.671Z,19.27
2022-10-08T12:13:31.247Z,19.35
2022-10-08T12:16:06.796Z,19.21
2022-10-08T12:18:53.698Z,19.56
2022-10-08T12:21:56.513Z,20.06
2022-10-08T12:24:56.243Z,19.74
2022-10-08T12:27:40.001Z,20.16
2022-10-08T12:30:12.693Z,20.02
2022-10-08T12:32:56.339Z,19.96
2022-10-08T12:35:30.046Z,19.82
2022-10-08T12:38:30.666Z,19.20
2022-10-08T12:41:17.573Z,19.64
2022-10-08T12:43:54.300Z,19.60
2022-10-08T12:46:36.481Z,19.38
2022-10-08T12:49:16.258Z,19.44
2022-10-08T12:51:53.309Z,19.30
2022-10-08T12:54:29.785Z,18.69
2022-10-08T12:56:59.383Z,18.89
2022-10-08T12:59:31.599Z,19.23
2022-10-08T13:02:00.421Z,19.32
2022-10-08T13:04:33.908Z,19.20
2022-10-08T13:07:25.042Z,18.83
2022-10-08T13:09:58.412Z,19.49
2022-10-08T13:12:27.194Z,19.39
2022-10-08T13:15:05.840Z,19.41
2022-10-08T13:17:37.064Z,19.49
2022-10-08T13:20:15.145Z,19.32
2022-10-08T13:22:43.526Z,19.29
2022-10-08T13:25:35.707Z,19.54
2022-10-08T13:28:13.949Z,19.88
2022-10-08T13:30:44.672Z,19.50
2022-10-08T13:33:20.044Z,19.38
2022-10-08T13:35:55.054Z,19.46
2022-10-08T13:38:27.860Z,19.63
2022-10-08T13:41:03.988Z,19.49
2022-10-08T13:43:34.101Z,19.55
2022-10-08T13:46:02.815Z,19.73
2022-10-08T13:48:31.117Z,19.92
2022-10-08T13:51:00.535Z,19.85
2022-10-08T13:53:28.939Z,19.41
2022-10-08T13:55:58.629Z,20.44
2022-10-08T13:58:26.909Z,19.99
2022-10-08T14:00:55.615Z,19.50
2022-10-08T14:03:24.181Z,19.40
2022-10-08T14:05:53.284Z,18.92
2022-10-08T14:08:26.776Z,18.35
2022-10-08T14:10:58.111Z,18.55
2022-10-08T14:13:29.732Z,18.72
2022-10-08T14:15:58.266Z,19.25
2022-10-08T14:18:26.673Z,18.92
2022-10-08T14:20:54.976Z,18.96
2022-10-08T14:23:23.256Z,18.78
2022-10-08T14:25:53.669Z,18.87
2022-10-08T14:28:22.096Z,18.88
2022-10-08T14:30:51.982Z,18.52
2022-10-08T14:33:20.288Z,18.58
2022-10-08T14:35:53.567Z,18.46
2022-10-08T14:38:21.848Z,18.08
2022-10-08T14:40:50.387Z,18.16
2022-10-08T14:43:18.786Z,18.37
2022-10-08T14:45:47.101Z,18.67
2022-10-08T14:48:16.761Z,18.85
2022-10-08T14:50:45.061Z,18.65
2022-10-08T14:53:13.404Z,18.23
2022-10-08T14:56:00.836Z,17.16
2022-10-08T14:58:30.193Z,17.84
2022-10-08T15:00:59.609Z,18.16
2022-10-08T15:03:29.352Z,17.98
2022-10-08T15:06:01.003Z,18.12
2022-10-08T15:08:29.645Z,17.81
2022-10-08T15:10:58.120Z,17.70
2022-10-08T15:13:26.369Z,17.66
2022-10-08T15:15:54.857Z,17.70
2022-10-08T15:18:23.221Z,16.82
2022-10-08T15:20:57.635Z,17.24
2022-10-08T15:23:27.690Z,17.33
2022-10-08T15:25:58.452Z,17.26
2022-10-08T15:28:28.413Z,16.88
2022-10-08T15:31:08.708Z,16.62
2022-10-08T15:33:40.388Z,16.49
2022-10-08T15:36:20.477Z,16.90
2022-10-08T15:38:55.050Z,16.66
2022-10-08T15:41:23.398Z,16.10
2022-10-08T15:43:51.734Z,16.84
2022-10-08T15:46:22.619Z,16.45
2022-10-08T15:48:55.855Z,16.69
2022-10-08T15:51:26.374Z,16.98
2022-10-08T15:53:54.729Z,16.67
2022-10-08T15:56:23.647Z,16.22
2022-10-08T15:58:52.168Z,16.54
2022-10-08T16:01:24.479Z,16.22
2022-10-08T16:03:55.412Z,16.53
2022-10-08T16:06:27.953Z,16.06
2022-10-08T16:08:58.948Z,16.04
2022-10-08T16:11:30.278Z,15.70
2022-10-08T16:14:02.934Z,16.12
2022-10-08T16:16:31.736Z,16.16
2022-10-08T16:19:03.130Z,15.92
2022-10-08T16:21:34.482Z,15.44
2022-10-08T16:24:03.510Z,15.53
2022-10-08T16:26:33.771Z,16.00
2022-10-08T16:29:06.315Z,15.58
2022-10-08T16:31:37.350Z,15.31
2022-10-08T16:34:08.942Z,15.71
2022-10-08T16:36:39.493Z,15.89
2022-10-08T16:39:09.067Z,15.60
2022-10-08T16:41:38.242Z,15.85
2022-10-08T16:44:12.421Z,15.92
2022-10-08T16:46:44.555Z,15.53
2022-10-08T16:49:22.803Z,15.14
2022-10-08T16:51:55.192Z,15.56
2022-10-08T16:54:23.615Z,15.47
2022-10-08T16:56:52.271Z,15.00
2022-10-08T16:59:22.951Z,14.98
2022-10-08T17:01:54.235Z,14.89
2022-10-08T17:04:25.114Z,15.10
2022-10-08T17:06:55.205Z,14.70
2022-10-08T17:09:24.551Z,14.76
2022-10-08T17:11:53.098Z,14.22
2022-10-08T17:14:21.467Z,14.97
2022-10-08T17:16:50.784Z,14.75
2022-10-08T17:19:19.950Z,14.76
2022-10-08T17:21:48.295Z,14.78
2022-10-08T17:24:18.015Z,14.34
2022-10-08T17:26:46.402Z,14.34
2022-10-08T17:29:14.749Z,14.81
2022-10-08T17:31:43.625Z,14.77
2022-10-08T17:34:12.833Z,14.54
2022-10-08T17:36:44.175Z,14.47
2022-10-08T17:39:15.224Z,14.44
2022-10-08T17:41:45.336Z,13.09
2022-10-08T17:44:14.058Z,14.42
2022-10-08T17:46:46.091Z,14.28
2022-10-08T17:49:15.966Z,14.37
2022-10-08T17:51:44.688Z,14.38
2022-10-08T17:54:16.181Z,14.17
2022-10-08T17:56:46.198Z,14.06
2022-10-08T17:59:16.238Z,13.07
2022-10-08T18:01:46.051Z,14.03
2022-10-08T18:04:17.182Z,13.96
2022-10-08T18:06:47.858Z,13.83
2022-10-08T18:09:19.463Z,13.64
2022-10-08T18:11:53.380Z,13.77
2022-10-08T18:14:22.536Z,13.75
2022-10-08T18:16:50.936Z,13.81
2022-10-08T18:19:19.871Z,13.34
2022-10-08T18:21:48.178Z,13.51
2022-10-08T18:24:17.123Z,13.68
2022-10-08T18:26:45.806Z,13.31
2022-10-08T18:29:16.032Z,13.14
2022-10-08T18:31:46.619Z,13.18
2022-10-08T18:34:17.980Z,12.53
2022-10-08T18:36:47.467Z,13.00
2022-10-08T18:39:18.248Z,13.19
2022-10-08T18:41:49.174Z,12.42
2022-10-08T18:44:21.700Z,12.76
2022-10-08T18:46:51.231Z,12.81
2022-10-08T18:49:23.881Z,13.05
2022-10-08T18:51:52.304Z,13.03
2022-10-08T18:54:20.986Z,12.33
2022-10-08T18:56:49.273Z,12.80
2022-10-08T18:59:19.756Z,12.57
2022-10-08T19:01:49.274Z,11.95
2022-10-08T19:04:21.064Z,12.25
2022-10-08T19:06:52.172Z,12.40
2022-10-08T19:09:21.606Z,12.69
2022-10-08T19:11:52.344Z,12.42
2022-10-08T19:14:23.906Z,12.09
2022-10-08T19:16:52.562Z,12.29
2022-10-08T19:19:22.825Z,12.17
2022-10-08T19:21:54.118Z,12.48
2022-10-08T19:24:25.109Z,12.35
2022-10-08T19:26:55.256Z,11.78
2022-10-08T19:29:29.089Z,12.31
2022-10-08T19:31:57.729Z,11.80
2022-10-08T19:34:28.689Z,12.24
2022-10-08T19:36:57.078Z,12.04
2022-10-08T19:39:29.022Z,12.20
2022-10-08T19:41:57.362Z,12.11
2022-10-08T19:44:27.364Z,12.14
2022-10-08T19:46:55.791Z,11.45
2022-10-08T19:49:24.366Z,12.03
2022-10-08T19:51:54.135Z,11.66
2022-10-08T19:54:22.628Z,11.58
2022-10-08T19:56:50.946Z,11.85
2022-10-08T19:59:19.247Z,11.91
2022-10-08T20:01:49.184Z,10.92
2022-10-08T20:04:17.651Z,11.63
2022-10-08T20:06:46.116Z,11.80
2022-10-08T20:09:15.486Z,11.41
2022-10-08T20:11:46.056Z,11.47
2022-10-08T20:14:16.072Z,11.57
2022-10-08T20:16:45.107Z,11.45
2022-10-08T20:19:20.640Z,11.45
2022-10-08T20:21:50.781Z,11.44
2022-10-08T20:24:20.088Z,11.35
2022-10-08T20:26:49.431Z,11.17
2022-10-08T20:29:20.417Z,11.27
2022-10-08T20:31:54.124Z,11.58
2022-10-08T20:34:26.975Z,10.80
2022-10-08T20:36:55.642Z,11.35
2022-10-08T20:39:24.288Z,11.47
2022-10-08T20:41:53.649Z,11.22
2022-10-08T20:44:22.126Z,11.39
2022-10-08T20:46:51.911Z,11.20
2022-10-08T20:49:20.984Z,11.11
2022-10-08T20:51:50.697Z,11.37
2022-10-08T20:54:19.388Z,11.35
2022-10-08T20:56:47.787Z,10.64
2022-10-08T20:59:18.608Z,11.22
2022-10-08T21:01:47.862Z,10.40
2022-10-08T21:04:16.396Z,11.14
2022-10-08T21:06:46.812Z,11.08
2022-10-08T21:09:19.391Z,11.19
2022-10-08T21:11:48.823Z,10.98
2022-10-08T21:14:19.972Z,11.14
2022-10-08T21:16:48.347Z,11.11
2022-10-08T21:19:21.439Z,10.93
2022-10-08T21:21:50.126Z,11.12
2022-10-08T21:24:20.283Z,11.11
2022-10-08T21:26:49.039Z,11.08
2022-10-08T21:29:17.254Z,11.01
2022-10-08T21:31:45.626Z,10.95
2022-10-08T21:34:26.062Z,10.59
2022-10-08T21:36:55.740Z,10.19
2022-10-08T21:42:09.799Z,9.72
2022-10-08T21:44:38.437Z,9.37
2022-10-08T21:47:07.020Z,9.04
2022-10-08T21:49:35.602Z,9.80
2022-10-08T21:52:09.876Z,10.08
2022-10-08T21:54:39.631Z,9.57
2022-10-08T21:57:08.084Z,9.99
2022-10-08T21:59:36.669Z,9.83
2022-10-08T22:02:05.146Z,10.77
2022-10-08T22:04:33.682Z,9.87
2022-10-08T22:07:04.622Z,9.76
2022-10-08T22:09:35.061Z,10.17
2022-10-08T22:12:05.756Z,10.28
2022-10-08T22:14:34.181Z,9.28
2022-10-08T22:17:02.595Z,9.76
2022-10-08T22:19:31.110Z,9.34
2022-10-08T22:21:59.641Z,8.64
2022-10-08T22:24:28.764Z,10.51
2022-10-08T22:26:57.210Z,10.26
2022-10-08T22:29:27.084Z,10.32
2022-10-08T22:31:55.544Z,9.32
2022-10-08T22:34:24.014Z,8.62
2022-10-08T22:36:52.510Z,8.57
2022-10-08T22:39:21.280Z,10.40
2022-10-08T22:41:49.698Z,9.93
2022-10-08T22:44:18.182Z,8.69
2022-10-08T22:46:47.983Z,9.64
2022-10-08T22:49:16.657Z,9.11
2022-10-08T22:51:45.082Z,8.45
2022-10-08T22:54:13.720Z,10.26
2022-10-08T22:56:42.574Z,9.19
2022-10-08T22:59:11.719Z,9.29
2022-10-08T23:01:40.174Z,9.32
2022-10-08T23:04:10.122Z,9.19
2022-10-08T23:06:38.711Z,9.62
2022-10-08T23:09:12.013Z,8.29
2022-10-08T23:11:40.746Z,8.80
2022-10-08T23:14:09.212Z,9.98
2022-10-08T23:16:37.751Z,10.01
2022-10-08T23:19:10.047Z,8.88
2022-10-08T23:21:39.732Z,9.77
2022-10-08T23:24:10.190Z,7.88
2022-10-08T23:26:38.606Z,8.08
2022-10-08T23:29:07.062Z,7.98
2022-10-08T23:31:37.824Z,9.19
2022-10-08T23:34:07.196Z,8.16
2022-10-08T23:36:39.901Z,7.89
2022-10-08T23:39:11.995Z,9.57
2022-10-08T23:41:40.632Z,8.93
2022-10-08T23:44:11.239Z,8.30
2022-10-08T23:46:39.565Z,8.92
2022-10-08T23:49:08.964Z,9.37
2022-10-08T23:51:38.914Z,9.02
2022-10-08T23:54:07.569Z,9.75
2022-10-08T23:56:36.280Z,9.73
2022-10-08T23:59:04.779Z,9.67
